Flagstaff, Arizona
Current Conditions -  °F | °C
As of 6:57 PM on Monday 20 Oct 2014 (Local Time) from KFLG Reporting Station
Scattered Clouds Scattered Clouds  
Wind Chill: 50°   Ceiling: Unl
Heat Index: 50°   Visibility: 10mi
Dew Point: 41°   Wind: 0mph
Humidity: 71%   Direction: NA
Pressure: 30.18"   Gusts: NA
Location:  35.2°N, 111.65°W
Report Text: KFLG 210157Z 00000KT 10SM SCT070 10/05 A3018 RMK AO2 SLP177 T01000050
Loading
Personal Weather Stations






























Interactive Weather Map
Tropical Storm Tracking
New forecast layout! Learn more

10-Day Weather Forecast

Advertisements
Track Severe Weather on mobile